createdAt,value
2022-11-09T00:01:29.558Z,14.80
2022-11-09T00:03:59.592Z,14.80
2022-11-09T00:06:29.285Z,14.80
2022-11-09T00:09:01.344Z,14.80
2022-11-09T00:11:33.789Z,14.90
2022-11-09T00:14:01.840Z,14.90
2022-11-09T00:16:29.975Z,14.90
2022-11-09T00:18:58.231Z,14.90
2022-11-09T00:21:27.042Z,14.80
2022-11-09T00:23:56.093Z,14.80
2022-11-09T00:26:24.656Z,14.80
2022-11-09T00:28:54.188Z,14.70
2022-11-09T00:31:24.774Z,14.70
2022-11-09T00:33:55.563Z,14.60
2022-11-09T00:36:26.538Z,14.70
2022-11-09T00:38:57.407Z,14.70
2022-11-09T00:41:27.321Z,14.60
2022-11-09T00:43:58.138Z,14.60
2022-11-09T00:46:35.541Z,14.50
2022-11-09T00:49:03.843Z,14.50
2022-11-09T00:51:31.996Z,14.50
2022-11-09T00:54:00.555Z,14.40
2022-11-09T00:56:28.828Z,14.40
2022-11-09T00:58:58.305Z,14.40
2022-11-09T01:01:27.859Z,14.40
2022-11-09T01:03:56.115Z,14.40
2022-11-09T01:06:26.386Z,14.40
2022-11-09T01:08:55.097Z,14.40
2022-11-09T01:11:24.008Z,14.40
2022-11-09T01:13:55.228Z,14.40
2022-11-09T01:16:25.525Z,14.40
2022-11-09T01:18:55.072Z,14.30
2022-11-09T01:21:26.900Z,14.30
2022-11-09T01:23:56.000Z,14.30
2022-11-09T01:26:24.145Z,14.30
2022-11-09T01:28:52.781Z,14.30
2022-11-09T01:31:24.200Z,14.30
2022-11-09T01:33:52.338Z,14.30
2022-11-09T01:36:23.847Z,14.20
2022-11-09T01:38:52.830Z,14.20
2022-11-09T01:41:25.352Z,14.20
2022-11-09T01:44:10.266Z,14.20
2022-11-09T01:46:51.245Z,14.20
2022-11-09T01:49:37.250Z,14.10
2022-11-09T01:52:12.729Z,14.10
2022-11-09T01:54:48.579Z,14.00
2022-11-09T01:57:26.419Z,14.10
2022-11-09T02:00:03.534Z,14.00
2022-11-09T02:02:48.966Z,14.00
2022-11-09T02:05:24.759Z,14.00
2022-11-09T02:07:56.522Z,13.90
2022-11-09T02:10:32.380Z,14.00
2022-11-09T02:13:03.560Z,14.00
2022-11-09T02:15:44.294Z,13.90
2022-11-09T02:18:15.749Z,13.90
2022-11-09T02:20:51.728Z,13.90
2022-11-09T02:23:21.622Z,14.00
2022-11-09T02:25:54.149Z,13.90
2022-11-09T02:28:23.063Z,13.90
2022-11-09T02:30:56.679Z,13.90
2022-11-09T02:33:25.976Z,13.90
2022-11-09T02:35:56.254Z,14.00
2022-11-09T02:38:24.688Z,14.00
2022-11-09T02:40:54.603Z,14.00
2022-11-09T02:43:24.498Z,14.00
2022-11-09T02:45:52.658Z,14.00
2022-11-09T02:48:20.976Z,14.00
2022-11-09T02:50:49.170Z,14.00
2022-11-09T02:53:18.816Z,14.00
2022-11-09T02:55:48.369Z,14.00
2022-11-09T02:58:16.640Z,14.00
2022-11-09T03:00:45.394Z,14.00
2022-11-09T03:03:14.458Z,13.90
2022-11-09T03:05:45.012Z,13.90
2022-11-09T03:08:15.207Z,13.90
2022-11-09T03:10:45.091Z,14.00
2022-11-09T03:13:13.783Z,14.00
2022-11-09T03:15:42.054Z,14.00
2022-11-09T03:18:10.324Z,14.10
2022-11-09T03:20:38.749Z,14.10
2022-11-09T03:23:07.107Z,14.20
2022-11-09T03:25:36.402Z,14.20
2022-11-09T03:28:09.778Z,14.20
2022-11-09T03:30:41.308Z,14.30
2022-11-09T03:33:10.205Z,14.30
2022-11-09T03:35:39.757Z,14.40
2022-11-09T03:38:08.586Z,14.40
2022-11-09T03:40:37.628Z,14.40
2022-11-09T03:43:07.671Z,14.40
2022-11-09T03:45:36.169Z,14.50
2022-11-09T03:48:05.011Z,14.40
2022-11-09T03:50:35.963Z,14.40
2022-11-09T03:53:04.331Z,14.50
2022-11-09T03:55:32.489Z,14.40
2022-11-09T03:58:00.578Z,14.50
2022-11-09T04:00:30.662Z,14.50
2022-11-09T04:03:00.515Z,14.60
2022-11-09T04:05:29.170Z,14.50
2022-11-09T04:07:59.984Z,14.50
2022-11-09T04:10:28.643Z,14.40
2022-11-09T04:12:56.848Z,14.40
2022-11-09T04:15:25.001Z,14.50
2022-11-09T04:18:00.697Z,14.50
2022-11-09T04:20:32.290Z,14.40
2022-11-09T04:23:03.699Z,14.50
2022-11-09T04:25:35.353Z,14.50
2022-11-09T04:28:06.186Z,14.50
2022-11-09T04:30:37.454Z,14.50
2022-11-09T04:33:07.215Z,14.50
2022-11-09T04:35:35.847Z,14.50
2022-11-09T04:38:07.678Z,14.50
2022-11-09T04:40:37.041Z,14.50
2022-11-09T04:43:08.311Z,14.40
2022-11-09T04:45:37.054Z,14.40
2022-11-09T04:48:08.667Z,14.40
2022-11-09T04:50:36.937Z,14.40
2022-11-09T04:53:08.167Z,14.40
2022-11-09T04:55:36.771Z,14.40
2022-11-09T04:58:05.377Z,14.40
2022-11-09T05:00:34.100Z,14.40
2022-11-09T05:03:03.876Z,14.50
2022-11-09T05:05:34.678Z,14.40
2022-11-09T05:08:03.459Z,14.40
2022-11-09T05:10:32.755Z,14.40
2022-11-09T05:13:01.769Z,14.50
2022-11-09T05:15:30.638Z,14.50
2022-11-09T05:17:59.447Z,14.50
2022-11-09T05:20:27.815Z,14.50
2022-11-09T05:23:17.259Z,14.40
2022-11-09T05:25:46.478Z,14.50
2022-11-09T05:28:15.325Z,14.50
2022-11-09T05:30:47.822Z,14.50
2022-11-09T05:33:17.251Z,14.60
2022-11-09T05:35:45.592Z,14.60
2022-11-09T05:38:15.281Z,14.60
2022-11-09T05:40:43.412Z,14.60
2022-11-09T05:43:11.832Z,14.50
2022-11-09T05:45:43.128Z,14.50
2022-11-09T05:48:13.173Z,14.50
2022-11-09T05:50:42.682Z,14.40
2022-11-09T05:53:17.342Z,14.50
2022-11-09T05:55:45.756Z,14.40
2022-11-09T05:58:13.994Z,14.40
2022-11-09T06:00:42.188Z,14.50
2022-11-09T06:03:12.923Z,14.50
2022-11-09T06:05:42.409Z,14.50
2022-11-09T06:08:14.028Z,14.40
2022-11-09T06:10:44.103Z,14.50
2022-11-09T06:13:13.282Z,14.40
2022-11-09T06:15:41.445Z,14.40
2022-11-09T06:18:09.626Z,14.40
2022-11-09T06:20:37.750Z,14.50
2022-11-09T06:23:05.970Z,14.50
2022-11-09T06:25:34.644Z,14.50
2022-11-09T06:28:04.322Z,14.50
2022-11-09T06:30:32.487Z,14.50
2022-11-09T06:33:01.563Z,14.50
2022-11-09T06:35:30.996Z,14.50
2022-11-09T06:38:00.246Z,14.50
2022-11-09T06:40:29.192Z,14.50
2022-11-09T06:42:59.345Z,14.50
2022-11-09T06:45:31.586Z,14.50
2022-11-09T06:48:01.871Z,14.50
2022-11-09T06:50:33.664Z,14.40
2022-11-09T06:53:05.076Z,14.40
2022-11-09T06:55:36.212Z,14.30
2022-11-09T06:58:08.270Z,14.30
2022-11-09T07:00:38.732Z,14.40
2022-11-09T07:03:07.556Z,14.40
2022-11-09T07:05:39.766Z,14.30
2022-11-09T07:08:08.027Z,14.40
2022-11-09T07:10:36.228Z,14.30
2022-11-09T07:13:04.842Z,14.20
2022-11-09T07:15:33.911Z,14.20
2022-11-09T07:18:06.860Z,14.30
2022-11-09T07:20:35.037Z,14.20
2022-11-09T07:23:03.292Z,14.20
2022-11-09T07:25:32.109Z,14.20
2022-11-09T07:28:04.957Z,14.20
2022-11-09T07:30:33.298Z,14.20
2022-11-09T07:33:09.201Z,14.20
2022-11-09T07:35:49.412Z,14.20
2022-11-09T07:38:19.587Z,14.20
2022-11-09T07:40:48.035Z,14.10
2022-11-09T07:43:17.343Z,14.10
2022-11-09T07:45:50.631Z,14.10
2022-11-09T07:48:20.197Z,14.10
2022-11-09T07:50:48.420Z,14.10
2022-11-09T07:53:17.716Z,14.20
2022-11-09T07:55:46.104Z,14.20
2022-11-09T07:58:16.445Z,14.20
2022-11-09T08:00:45.149Z,14.20
2022-11-09T08:03:13.676Z,14.30
2022-11-09T08:05:43.174Z,14.30
2022-11-09T08:08:13.421Z,14.20
2022-11-09T08:10:41.795Z,14.20
2022-11-09T08:13:14.289Z,14.20
2022-11-09T08:15:43.355Z,14.20
2022-11-09T08:18:15.158Z,14.20
2022-11-09T08:20:44.794Z,14.30
2022-11-09T08:23:13.640Z,14.20
2022-11-09T08:25:42.399Z,14.20
2022-11-09T08:28:14.776Z,14.30
2022-11-09T08:30:45.156Z,14.30
2022-11-09T08:33:14.306Z,14.30
2022-11-09T08:35:44.730Z,14.40
2022-11-09T08:38:15.127Z,14.40
2022-11-09T08:40:43.536Z,14.40
2022-11-09T08:43:13.085Z,14.40
2022-11-09T08:45:42.369Z,14.40
2022-11-09T08:48:12.630Z,14.50
2022-11-09T08:50:40.948Z,14.60
2022-11-09T08:53:11.879Z,14.70
2022-11-09T08:55:40.001Z,14.70
2022-11-09T08:58:08.264Z,14.80
2022-11-09T09:00:36.414Z,14.90
2022-11-09T09:03:06.379Z,14.90
2022-11-09T09:05:36.050Z,14.90
2022-11-09T09:08:07.414Z,15.00
2022-11-09T09:10:37.014Z,15.00
2022-11-09T09:13:05.945Z,15.10
2022-11-09T09:15:34.574Z,15.20
2022-11-09T09:18:03.193Z,15.40
2022-11-09T09:20:31.768Z,15.40
2022-11-09T09:23:00.921Z,15.40
2022-11-09T09:25:29.919Z,15.50
2022-11-09T09:27:59.727Z,15.50
2022-11-09T09:30:27.908Z,15.50
2022-11-09T09:33:01.009Z,15.50
2022-11-09T09:35:30.006Z,15.50
2022-11-09T09:37:58.533Z,15.50
2022-11-09T09:40:37.165Z,15.50
2022-11-09T09:43:06.874Z,15.50
2022-11-09T09:45:40.272Z,15.50
2022-11-09T09:48:27.361Z,15.50
2022-11-09T09:51:02.372Z,15.40
2022-11-09T09:53:36.901Z,15.50
2022-11-09T09:56:12.554Z,15.50
2022-11-09T09:58:48.612Z,15.60
2022-11-09T10:01:21.226Z,15.60
2022-11-09T10:03:50.087Z,15.60
2022-11-09T10:06:47.908Z,15.70
2022-11-09T10:09:31.506Z,15.70
2022-11-09T10:12:17.231Z,15.70
2022-11-09T10:15:10.773Z,15.80
2022-11-09T10:17:50.991Z,15.70
2022-11-09T10:20:37.971Z,15.70
2022-11-09T10:23:31.102Z,15.80
2022-11-09T10:26:10.025Z,15.90
2022-11-09T10:31:48.232Z,15.80
2022-11-09T10:34:21.346Z,15.70
2022-11-09T10:37:05.337Z,15.70
2022-11-09T10:39:48.414Z,15.80
2022-11-09T10:42:35.116Z,15.80
2022-11-09T10:45:35.590Z,15.90
2022-11-09T10:48:34.500Z,15.80
2022-11-09T10:51:36.521Z,15.80
2022-11-09T10:54:27.532Z,15.80
2022-11-09T10:57:21.091Z,15.80
2022-11-09T11:00:17.601Z,15.90
2022-11-09T11:03:17.035Z,15.90
2022-11-09T11:06:08.012Z,15.80
2022-11-09T11:09:16.912Z,15.90
2022-11-09T11:12:16.153Z,16.10
2022-11-09T11:15:03.204Z,16.10
2022-11-09T11:17:50.562Z,16.10
2022-11-09T11:20:38.971Z,16.20
2022-11-09T11:23:27.856Z,16.20
2022-11-09T11:26:28.592Z,16.10
2022-11-09T11:29:33.487Z,16.20
2022-11-09T11:32:22.125Z,16.10
2022-11-09T11:35:17.878Z,16.20
2022-11-09T11:38:23.679Z,16.30
2022-11-09T11:41:39.214Z,16.40
2022-11-09T11:45:18.528Z,16.60
2022-11-09T11:48:50.847Z,16.50
2022-11-09T11:51:50.227Z,16.50
2022-11-09T11:54:49.068Z,16.40
2022-11-09T11:57:54.040Z,16.20
2022-11-09T12:00:53.441Z,16.10
2022-11-09T12:03:57.365Z,16.00
2022-11-09T12:07:10.862Z,16.00
2022-11-09T12:10:28.703Z,16.00
2022-11-09T12:13:49.623Z,16.00
2022-11-09T12:16:49.293Z,15.90
2022-11-09T12:19:57.135Z,16.00
2022-11-09T12:23:08.333Z,16.00
2022-11-09T12:26:14.540Z,16.20
2022-11-09T12:29:17.956Z,16.20
2022-11-09T12:32:20.914Z,16.20
2022-11-09T12:35:26.399Z,16.20
2022-11-09T12:38:22.626Z,16.10
2022-11-09T12:41:16.124Z,16.10
2022-11-09T12:44:16.912Z,16.10
2022-11-09T12:47:15.446Z,16.10
2022-11-09T12:50:02.300Z,16.10
2022-11-09T12:52:52.279Z,16.00
2022-11-09T12:55:48.467Z,16.00
2022-11-09T12:58:38.936Z,16.20
2022-11-09T13:01:49.259Z,16.30
2022-11-09T13:04:36.247Z,16.30
2022-11-09T13:07:54.816Z,16.40
2022-11-09T13:10:41.922Z,16.50
2022-11-09T13:13:28.661Z,16.30
2022-11-09T13:16:37.115Z,16.20
2022-11-09T13:19:57.554Z,16.10
2022-11-09T13:23:01.276Z,16.00
2022-11-09T13:25:52.978Z,16.00
2022-11-09T13:28:46.037Z,16.10
2022-11-09T13:32:03.640Z,16.00
2022-11-09T13:34:54.401Z,16.00
2022-11-09T13:37:57.853Z,16.00
2022-11-09T13:40:48.310Z,16.00
2022-11-09T13:43:39.801Z,16.00
2022-11-09T13:46:33.186Z,16.10
2022-11-09T13:49:50.342Z,16.10
2022-11-09T13:52:52.209Z,16.10
2022-11-09T13:55:41.045Z,16.10
2022-11-09T13:58:35.392Z,16.10
2022-11-09T14:01:34.248Z,16.10
2022-11-09T14:04:27.610Z,16.00
2022-11-09T14:07:21.588Z,15.90
2022-11-09T14:10:25.152Z,15.80
2022-11-09T14:13:36.842Z,15.90
2022-11-09T14:16:34.678Z,15.80
2022-11-09T14:19:35.952Z,15.80
2022-11-09T14:22:23.614Z,15.70
2022-11-09T14:25:21.263Z,15.60
2022-11-09T14:28:23.260Z,15.60
2022-11-09T14:31:24.335Z,15.50
2022-11-09T14:34:17.904Z,15.50
2022-11-09T14:37:07.451Z,15.40
2022-11-09T14:39:54.414Z,15.30
2022-11-09T14:42:48.580Z,15.30
2022-11-09T14:45:35.939Z,15.30
2022-11-09T14:48:25.569Z,15.20
2022-11-09T14:51:14.632Z,15.30
2022-11-09T14:54:04.069Z,15.30
2022-11-09T14:56:51.895Z,15.30
2022-11-09T14:59:45.675Z,15.30
2022-11-09T15:02:32.722Z,15.70
2022-11-09T15:05:40.003Z,15.50
2022-11-09T15:08:26.964Z,15.40
2022-11-09T15:11:14.102Z,15.30
2022-11-09T15:14:11.541Z,15.30
2022-11-09T15:17:07.831Z,15.30
2022-11-09T15:19:57.969Z,15.30
2022-11-09T15:22:54.531Z,15.20
2022-11-09T15:25:56.923Z,15.20
2022-11-09T15:28:49.353Z,15.10
2022-11-09T15:31:36.180Z,14.90
2022-11-09T15:34:27.206Z,14.90
2022-11-09T15:37:27.982Z,14.80
2022-11-09T15:40:20.513Z,14.70
2022-11-09T15:43:07.727Z,14.70
2022-11-09T15:45:55.116Z,14.60
2022-11-09T15:48:45.885Z,14.60
2022-11-09T15:51:34.993Z,14.50
2022-11-09T15:54:22.332Z,14.50
2022-11-09T15:57:15.775Z,14.40
2022-11-09T16:00:06.725Z,14.40
2022-11-09T16:02:58.131Z,14.30
2022-11-09T16:05:45.756Z,14.40
2022-11-09T16:08:34.110Z,14.40
2022-11-09T16:11:21.159Z,14.40
2022-11-09T16:14:09.182Z,14.50
2022-11-09T16:16:56.310Z,14.50
2022-11-09T16:19:43.297Z,14.50
2022-11-09T16:22:34.143Z,14.50
2022-11-09T16:25:23.016Z,14.50
2022-11-09T16:28:09.804Z,14.40
2022-11-09T16:30:56.465Z,14.40
2022-11-09T16:33:44.059Z,14.40
2022-11-09T16:36:32.443Z,14.40
2022-11-09T16:39:19.852Z,14.30
2022-11-09T16:42:12.514Z,14.40
2022-11-09T16:45:09.064Z,14.30
2022-11-09T16:47:57.957Z,14.20
2022-11-09T16:50:46.944Z,14.00
2022-11-09T16:53:34.074Z,13.80
2022-11-09T16:56:21.094Z,13.70
2022-11-09T16:59:09.976Z,13.60
2022-11-09T17:01:59.750Z,13.60
2022-11-09T17:04:46.636Z,13.50
2022-11-09T17:07:42.002Z,13.50
2022-11-09T17:10:30.179Z,13.40
2022-11-09T17:13:17.387Z,13.50
2022-11-09T17:16:09.969Z,13.40
2022-11-09T17:18:58.233Z,13.40
2022-11-09T17:21:45.501Z,13.40
2022-11-09T17:24:34.398Z,13.50
2022-11-09T17:27:21.567Z,13.50
2022-11-09T17:30:10.705Z,13.40
2022-11-09T17:32:58.890Z,13.50
2022-11-09T17:35:46.026Z,13.40
2022-11-09T17:38:33.460Z,13.50
2022-11-09T17:41:21.995Z,13.40
2022-11-09T17:44:09.188Z,13.50
2022-11-09T17:46:55.944Z,13.50
2022-11-09T17:49:44.293Z,13.60
2022-11-09T17:52:31.865Z,13.60
2022-11-09T17:55:19.073Z,13.50
2022-11-09T17:58:06.280Z,13.60
2022-11-09T18:00:54.094Z,13.60
2022-11-09T18:03:42.150Z,13.60
2022-11-09T18:06:30.448Z,13.60
2022-11-09T18:09:40.254Z,13.60
2022-11-09T18:12:23.991Z,13.60
2022-11-09T18:15:12.684Z,13.60
2022-11-09T18:18:00.046Z,13.60
2022-11-09T18:20:46.936Z,13.70
2022-11-09T18:23:37.256Z,13.60
2022-11-09T18:26:24.407Z,13.60
2022-11-09T18:29:11.383Z,13.50
2022-11-09T18:31:58.130Z,13.50
2022-11-09T18:34:45.142Z,13.40
2022-11-09T18:37:34.963Z,13.50
2022-11-09T18:40:23.550Z,13.40
2022-11-09T18:43:10.834Z,13.40
2022-11-09T18:46:00.317Z,13.40
2022-11-09T18:48:51.944Z,13.40
2022-11-09T18:51:38.817Z,13.30
2022-11-09T18:54:25.739Z,13.40
2022-11-09T18:57:19.479Z,13.40
2022-11-09T19:00:08.466Z,13.30
2022-11-09T19:02:55.662Z,13.20
2022-11-09T19:05:44.184Z,13.10
2022-11-09T19:08:48.509Z,13.00
2022-11-09T19:11:36.149Z,12.90
2022-11-09T19:14:28.313Z,12.80
2022-11-09T19:17:16.976Z,12.70
2022-11-09T19:20:03.821Z,12.70
2022-11-09T19:22:50.576Z,12.60
2022-11-09T19:25:37.462Z,12.60
2022-11-09T19:28:24.438Z,12.60
2022-11-09T19:31:14.901Z,12.60
2022-11-09T19:34:02.047Z,12.60
2022-11-09T19:36:49.269Z,12.60
2022-11-09T19:39:39.134Z,12.60
2022-11-09T19:42:28.735Z,12.50
2022-11-09T19:45:15.634Z,12.60
2022-11-09T19:48:04.081Z,12.60
2022-11-09T19:50:52.882Z,12.60
2022-11-09T19:53:42.536Z,12.60
2022-11-09T19:56:33.069Z,12.60
2022-11-09T19:59:21.185Z,12.50
2022-11-09T20:02:07.926Z,12.50
2022-11-09T20:04:56.074Z,12.50
2022-11-09T20:07:43.431Z,12.50
2022-11-09T20:10:30.254Z,12.50
2022-11-09T20:13:19.697Z,12.40
2022-11-09T20:16:09.500Z,12.40
2022-11-09T20:18:56.547Z,12.40
2022-11-09T20:21:45.495Z,12.30
2022-11-09T20:24:32.495Z,12.40
2022-11-09T20:27:19.517Z,12.40
2022-11-09T20:30:07.954Z,12.40
2022-11-09T20:32:54.818Z,12.40
2022-11-09T20:35:46.589Z,12.40
2022-11-09T20:38:35.597Z,12.50
2022-11-09T20:41:25.369Z,12.50
2022-11-09T20:44:13.373Z,12.50
2022-11-09T20:47:00.484Z,12.50
2022-11-09T20:49:48.470Z,12.40
2022-11-09T20:52:35.651Z,12.40
2022-11-09T20:55:24.503Z,12.40
2022-11-09T20:58:14.016Z,12.40
2022-11-09T21:01:03.395Z,12.30
2022-11-09T21:03:52.210Z,12.20
2022-11-09T21:06:38.991Z,12.30
2022-11-09T21:09:25.883Z,12.30
2022-11-09T21:12:30.823Z,12.20
2022-11-09T21:15:17.851Z,12.20
2022-11-09T21:18:04.941Z,12.20
2022-11-09T21:20:51.785Z,12.30
2022-11-09T21:23:57.567Z,12.30
2022-11-09T21:27:13.512Z,12.30
2022-11-09T21:30:01.934Z,12.20
2022-11-09T21:32:49.025Z,12.30
2022-11-09T21:35:36.081Z,12.30
2022-11-09T21:38:23.406Z,12.30
2022-11-09T21:41:28.912Z,12.30
2022-11-09T21:44:16.404Z,12.40
2022-11-09T21:47:04.845Z,12.40
2022-11-09T21:49:51.983Z,12.30
2022-11-09T21:52:38.825Z,12.30
2022-11-09T21:55:25.720Z,12.30
2022-11-09T21:58:12.421Z,12.40
2022-11-09T22:01:02.651Z,12.30
2022-11-09T22:03:51.456Z,12.30
2022-11-09T22:06:40.481Z,12.30
2022-11-09T22:09:32.464Z,12.30
2022-11-09T22:12:45.061Z,12.30
2022-11-09T22:15:49.653Z,12.30
2022-11-09T22:18:55.802Z,12.30
2022-11-09T22:21:44.219Z,12.30
2022-11-09T22:24:31.222Z,12.30
2022-11-09T22:27:18.020Z,12.30
2022-11-09T22:30:05.959Z,12.30
2022-11-09T22:32:52.512Z,12.40
2022-11-09T22:35:39.205Z,12.40
2022-11-09T22:38:27.412Z,12.30
2022-11-09T22:41:16.166Z,12.30
2022-11-09T22:44:03.202Z,12.30
2022-11-09T22:46:50.392Z,12.30
2022-11-09T22:49:37.209Z,12.20
2022-11-09T22:52:23.873Z,12.20
2022-11-09T22:55:12.301Z,12.20
2022-11-09T22:58:00.160Z,12.20
2022-11-09T23:00:47.126Z,12.20
2022-11-09T23:03:33.759Z,12.10
2022-11-09T23:06:23.497Z,12.10
2022-11-09T23:09:10.743Z,12.10
2022-11-09T23:11:59.099Z,12.10
2022-11-09T23:14:59.629Z,12.10
2022-11-09T23:18:04.188Z,12.00
2022-11-09T23:20:51.004Z,12.00
2022-11-09T23:23:38.090Z,12.00
2022-11-09T23:26:26.041Z,12.00
2022-11-09T23:29:14.236Z,12.00
2022-11-09T23:32:00.884Z,12.00
2022-11-09T23:34:47.595Z,11.90
2022-11-09T23:37:34.677Z,11.90
2022-11-09T23:40:21.614Z,11.90
2022-11-09T23:43:12.547Z,11.90
2022-11-09T23:46:04.197Z,11.90
2022-11-09T23:48:50.987Z,11.90
2022-11-09T23:51:37.700Z,12.00
2022-11-09T23:54:24.327Z,12.00
2022-11-09T23:57:11.223Z,12.00
2022-11-09T23:59:57.970Z,12.00
